Time;durP1;ratioP1;P1;durP2;ratioP2;P2;SDS_P1;SDS_P2;PMS_P1;PMS_P2;Temp;Humidity;BMP_temperature;BMP_pressure;BME280_temperature;BME280_humidity;BME280_pressure;Samples;Min_cycle;Max_cycle;Signal;HPM_P1;HPM_P2
2021/03/22 00:01:49;;;;;;;11.77;2.80;;;5.70;77.80;;;;;;5073700;28;20418;-75
2021/03/22 00:04:15;;;;;;;14.43;2.85;;;5.70;78.00;;;;;;5073407;28;20116;-74
2021/03/22 00:06:41;;;;;;;12.43;2.83;;;5.70;78.10;;;;;;5072919;28;20370;-74
2021/03/22 00:09:06;;;;;;;13.38;2.65;;;5.60;78.30;;;;;;5071653;28;20028;-74
2021/03/22 00:11:32;;;;;;;13.57;3.08;;;5.60;78.40;;;;;;5071676;28;20106;-74
2021/03/22 00:13:58;;;;;;;13.32;2.85;;;5.50;78.60;;;;;;5071597;28;20032;-74
2021/03/22 00:16:24;;;;;;;10.40;2.17;;;5.50;78.70;;;;;;5071482;28;20388;-75
2021/03/22 00:18:50;;;;;;;15.32;2.95;;;5.50;78.80;;;;;;5072851;28;20455;-75
2021/03/22 00:21:16;;;;;;;14.85;2.92;;;5.50;79.00;;;;;;5072774;28;20361;-74
2021/03/22 00:23:42;;;;;;;15.27;3.28;;;5.50;78.90;;;;;;5071518;28;20016;-74
2021/03/22 00:26:08;;;;;;;11.75;2.83;;;5.60;79.10;;;;;;5071457;28;20020;-75
2021/03/22 00:28:41;;;;;;;17.42;3.08;;;5.60;79.10;;;;;;5071237;28;20041;-74
2021/03/22 00:31:12;;;;;;;10.70;2.63;;;5.60;79.20;;;;;;5071387;28;20472;-74
2021/03/22 00:33:38;;;;;;;13.93;2.58;;;5.50;79.30;;;;;;5072731;28;20079;-74
2021/03/22 00:36:05;;;;;;;17.10;2.60;;;5.50;79.40;;;;;;5071484;28;20044;-74
2021/03/22 00:38:31;;;;;;;9.25;2.85;;;5.50;79.50;;;;;;5071428;28;20021;-75
2021/03/22 00:40:57;;;;;;;17.13;2.50;;;5.50;79.50;;;;;;5072940;28;20021;-74
2021/03/22 00:43:26;;;;;;;19.75;3.63;;;5.50;79.70;;;;;;5071358;28;20078;-74
2021/03/22 00:45:54;;;;;;;12.93;2.67;;;5.50;79.90;;;;;;5072835;28;20075;-74
2021/03/22 00:48:21;;;;;;;12.77;3.17;;;5.40;79.90;;;;;;5071369;28;20488;-75
2021/03/22 00:50:46;;;;;;;11.30;2.92;;;5.40;80.10;;;;;;5072576;28;20036;-74
2021/03/22 00:53:14;;;;;;;16.30;3.13;;;5.40;80.10;;;;;;5071236;28;20036;-75
2021/03/22 00:55:40;;;;;;;12.23;2.85;;;5.40;80.20;;;;;;5071602;28;20040;-75
2021/03/22 00:58:06;;;;;;;13.77;3.17;;;5.40;80.30;;;;;;5076441;28;20472;-74
2021/03/22 01:00:47;;;;;;;17.20;3.15;;;5.40;80.40;;;;;;5076466;28;20063;-75
2021/03/22 01:03:16;;;;;;;14.07;2.80;;;5.40;80.50;;;;;;5076519;28;20051;-74
2021/03/22 01:05:42;;;;;;;16.88;3.30;;;5.30;80.60;;;;;;5074749;28;20127;-74
2021/03/22 01:08:09;;;;;;;13.35;3.78;;;5.30;80.70;;;;;;5076257;28;20028;-74
2021/03/22 01:10:40;;;;;;;9.30;3.10;;;5.30;80.90;;;;;;5076120;28;20104;-75
2021/03/22 01:13:19;;;;;;;12.32;3.10;;;5.20;81.00;;;;;;5075005;28;20462;-74
2021/03/22 01:15:46;;;;;;;9.02;2.90;;;5.20;81.10;;;;;;5074675;28;20503;-74
2021/03/22 01:18:13;;;;;;;10.38;3.10;;;5.20;81.10;;;;;;5075953;28;20046;-74
2021/03/22 01:20:49;;;;;;;14.55;3.47;;;5.20;81.20;;;;;;5074648;28;20029;-74
2021/03/22 01:23:16;;;;;;;13.18;3.05;;;5.20;81.40;;;;;;5074573;28;20024;-74
2021/03/22 01:25:41;;;;;;;15.60;3.25;;;5.10;81.40;;;;;;5074532;28;20024;-74
2021/03/22 01:28:10;;;;;;;12.20;2.70;;;5.10;81.50;;;;;;5074337;28;20101;-75
2021/03/22 01:30:50;;;;;;;15.77;3.15;;;5.10;81.60;;;;;;5075837;28;20434;-74
2021/03/22 01:33:19;;;;;;;8.77;2.70;;;5.10;81.60;;;;;;5075661;28;20051;-74
2021/03/22 01:35:45;;;;;;;13.30;3.20;;;5.10;81.70;;;;;;5074310;28;20028;-74
2021/03/22 01:38:11;;;;;;;13.55;2.95;;;5.10;81.70;;;;;;5075739;28;20032;-74
2021/03/22 01:40:55;;;;;;;14.65;3.10;;;5.10;81.80;;;;;;5075571;28;20480;-74
2021/03/22 01:43:32;;;;;;;18.02;3.33;;;5.10;81.90;;;;;;5075491;28;20058;-75
2021/03/22 01:45:58;;;;;;;9.43;3.28;;;5.10;82.20;;;;;;5075494;28;20028;-74
2021/03/22 01:48:24;;;;;;;16.42;3.53;;;5.10;82.10;;;;;;5075895;28;20123;-75
2021/03/22 01:50:50;;;;;;;10.30;2.53;;;5.00;82.10;;;;;;5075202;28;20035;-75
2021/03/22 01:53:16;;;;;;;11.48;2.83;;;5.00;82.20;;;;;;5073994;28;20032;-74
2021/03/22 01:55:42;;;;;;;11.50;3.42;;;5.00;82.30;;;;;;5075254;28;20078;-74
2021/03/22 01:58:08;;;;;;;13.95;2.97;;;5.00;82.30;;;;;;5075363;28;20028;-74
2021/03/22 02:00:38;;;;;;;14.55;3.15;;;5.00;82.40;;;;;;5073893;28;20094;-74
2021/03/22 02:03:15;;;;;;;10.35;3.05;;;5.00;82.50;;;;;;5073945;28;20028;-75
2021/03/22 02:05:48;;;;;;;12.10;3.35;;;5.00;82.60;;;;;;5073880;28;20036;-75
2021/03/22 02:08:19;;;;;;;9.70;3.20;;;4.90;82.50;;;;;;5075202;28;20538;-75
2021/03/22 02:10:46;;;;;;;12.25;3.38;;;4.90;82.60;;;;;;5075213;28;20033;-75
2021/03/22 02:13:15;;;;;;;13.02;2.97;;;4.90;82.70;;;;;;5075013;28;20076;-75
2021/03/22 02:15:43;;;;;;;12.30;2.60;;;5.00;82.70;;;;;;5074824;28;20039;-75
2021/03/22 02:18:31;;;;;;;9.35;3.00;;;5.00;82.70;;;;;;5074866;28;20441;-74
2021/03/22 02:21:09;;;;;;;8.30;2.83;;;5.00;82.80;;;;;;5074713;28;20024;-75
2021/03/22 02:23:56;;;;;;;16.25;4.03;;;5.00;82.70;;;;;;5074632;28;20074;-74
2021/03/22 02:26:37;;;;;;;9.60;3.17;;;5.00;82.80;;;;;;5074618;28;20032;-74
2021/03/22 02:29:21;;;;;;;13.85;3.13;;;4.90;82.90;;;;;;5073141;28;20450;-75
2021/03/22 02:32:04;;;;;;;13.43;3.50;;;5.00;82.90;;;;;;5075002;28;20032;-74
2021/03/22 02:34:37;;;;;;;9.60;2.92;;;5.00;83.00;;;;;;5073033;28;20032;-75
2021/03/22 02:37:09;;;;;;;;;;;5.10;82.90;;;;;;5074897;28;20031;-75
2021/03/22 02:39:49;;;;;;;15.10;3.92;;;5.10;82.80;;;;;;5074347;28;19931;-74
2021/03/22 02:42:17;;;;;;;15.25;3.67;;;5.10;82.70;;;;;;5073019;28;20021;-74
2021/03/22 02:44:43;;;;;;;12.98;3.42;;;5.20;82.70;;;;;;5072926;28;20032;-75
2021/03/22 02:47:22;;;;;;;18.55;3.75;;;5.20;82.70;;;;;;5073976;28;20032;-74
2021/03/22 02:49:49;;;;;;;16.33;3.80;;;5.30;82.80;;;;;;5072822;28;20373;-75
2021/03/22 02:52:42;;;;;;;9.75;3.42;;;5.30;82.70;;;;;;5072533;28;20230;-74
2021/03/22 02:55:24;;;;;;;14.35;3.78;;;5.40;82.70;;;;;;5073887;28;20103;-74
2021/03/22 02:57:53;;;;;;;14.30;4.07;;;5.40;82.60;;;;;;5074137;28;20548;-74
2021/03/22 03:00:31;;;;;;;15.82;4.22;;;5.50;83.30;;;;;;5073750;28;20421;-74
2021/03/22 03:03:00;;;;;;;14.30;3.92;;;5.50;83.10;;;;;;5073650;28;20075;-74
2021/03/22 03:05:30;;;;;;;14.25;3.85;;;5.50;82.70;;;;;;5073646;28;20036;-74
2021/03/22 03:08:09;;;;;;;12.93;3.95;;;5.50;82.90;;;;;;5072293;28;20043;-75
2021/03/22 03:10:34;;;;;;;19.42;5.00;;;5.50;82.90;;;;;;5072341;28;20066;-74
2021/03/22 03:13:01;;;;;;;13.32;4.93;;;5.50;83.10;;;;;;5072116;28;20084;-74
2021/03/22 03:15:27;;;;;;;16.92;4.53;;;5.50;83.00;;;;;;5073338;28;20032;-74
2021/03/22 03:17:53;;;;;;;12.68;4.15;;;5.50;83.10;;;;;;5073165;28;20464;-74
2021/03/22 03:20:26;;;;;;;14.98;4.63;;;5.50;83.20;;;;;;5071568;28;20170;-74
2021/03/22 03:22:52;;;;;;;14.27;3.95;;;5.50;83.00;;;;;;5073300;28;20086;-74
2021/03/22 03:25:20;;;;;;;14.23;4.80;;;5.60;83.10;;;;;;5073343;28;20427;-74
2021/03/22 03:27:45;;;;;;;13.57;4.82;;;5.60;83.10;;;;;;5071652;28;20035;-74
2021/03/22 03:30:15;;;;;;;15.07;4.90;;;5.60;83.10;;;;;;5073871;28;20037;-74
2021/03/22 03:32:41;;;;;;;12.68;4.25;;;5.70;83.10;;;;;;5073189;28;20079;-75
2021/03/22 03:35:10;;;;;;;12.93;4.10;;;5.70;83.00;;;;;;5071959;28;20064;-74
2021/03/22 03:37:36;;;;;;;15.75;4.50;;;5.70;83.00;;;;;;5071853;28;20476;-74
2021/03/22 03:40:10;;;;;;;15.20;4.65;;;5.70;82.90;;;;;;5073069;28;20031;-74
2021/03/22 03:42:36;;;;;;;17.10;4.90;;;5.80;82.90;;;;;;5072095;28;20082;-74
2021/03/22 03:45:09;;;;;;;13.48;4.05;;;5.80;82.90;;;;;;5072367;28;20028;-74
2021/03/22 03:47:44;;;;;;;10.43;4.38;;;5.80;82.90;;;;;;5072070;28;20036;-75
2021/03/22 03:50:18;;;;;;;13.70;5.15;;;5.80;82.90;;;;;;5072991;28;20476;-75
2021/03/22 03:52:44;;;;;;;11.80;3.67;;;5.80;82.90;;;;;;5071578;28;20032;-75
2021/03/22 03:55:11;;;;;;;14.82;4.95;;;5.80;82.90;;;;;;5072938;28;20043;-75
2021/03/22 03:57:37;;;;;;;14.23;4.40;;;5.90;82.90;;;;;;5073096;28;20032;-74
2021/03/22 04:00:10;;;;;;;14.57;5.05;;;5.90;82.90;;;;;;5071743;28;20021;-75
2021/03/22 04:02:36;;;;;;;14.35;4.60;;;5.90;82.90;;;;;;5072903;28;20063;-74
2021/03/22 04:05:05;;;;;;;19.85;4.85;;;5.90;82.80;;;;;;5072929;28;20093;-74
2021/03/22 04:07:31;;;;;;;14.23;4.38;;;6.00;82.90;;;;;;5071666;28;20048;-75
2021/03/22 04:09:56;;;;;;;14.88;4.88;;;6.00;82.90;;;;;;5071673;28;20020;-74
2021/03/22 04:12:22;;;;;;;14.10;5.00;;;6.00;82.90;;;;;;5072889;28;20111;-74
2021/03/22 04:14:48;;;;;;;11.10;4.30;;;6.00;82.80;;;;;;5072960;28;20032;-74
2021/03/22 04:17:13;;;;;;;15.95;4.47;;;6.00;82.80;;;;;;5072813;28;20028;-74
2021/03/22 04:19:40;;;;;;;15.88;4.97;;;6.10;82.80;;;;;;5072839;28;20036;-74
2021/03/22 04:22:06;;;;;;;15.75;4.88;;;6.10;82.90;;;;;;5071521;28;20025;-74
2021/03/22 04:24:31;;;;;;;14.45;4.35;;;6.10;82.90;;;;;;5072797;28;20039;-74
2021/03/22 04:26:57;;;;;;;12.75;4.45;;;6.10;82.80;;;;;;5072728;28;20031;-75
2021/03/22 04:29:23;;;;;;;15.02;4.70;;;6.20;82.90;;;;;;5071511;28;20102;-75
2021/03/22 04:31:49;;;;;;;16.60;4.70;;;6.20;82.80;;;;;;5077183;28;20066;-75
2021/03/22 04:34:15;;;;;;;16.65;4.68;;;6.20;82.70;;;;;;5075413;28;20108;-74
2021/03/22 04:36:40;;;;;;;20.25;5.38;;;6.30;82.70;;;;;;5076661;28;20036;-74
2021/03/22 04:39:07;;;;;;;17.42;5.20;;;6.20;82.70;;;;;;5075428;28;20036;-74
2021/03/22 04:41:35;;;;;;;15.45;4.90;;;6.20;82.70;;;;;;5076616;28;20111;-74
2021/03/22 04:44:01;;;;;;;15.43;5.05;;;6.20;82.80;;;;;;5075235;28;20398;-74
2021/03/22 04:46:26;;;;;;;19.48;4.68;;;6.20;82.80;;;;;;5075178;28;20021;-75
2021/03/22 04:48:52;;;;;;;11.18;4.43;;;6.30;82.80;;;;;;5076495;28;20417;-74
2021/03/22 04:51:18;;;;;;;17.15;4.55;;;6.30;82.80;;;;;;5076286;28;20119;-74
2021/03/22 04:53:43;;;;;;;14.45;4.82;;;6.30;82.70;;;;;;5074977;28;20020;-74
2021/03/22 04:56:10;;;;;;;11.80;4.60;;;6.30;82.70;;;;;;5076341;28;20036;-74
2021/03/22 04:58:36;;;;;;;14.75;5.63;;;6.40;82.70;;;;;;5074813;28;20451;-75
2021/03/22 05:01:03;;;;;;;16.77;4.95;;;6.40;82.70;;;;;;5076171;28;20037;-74
2021/03/22 05:03:29;;;;;;;15.07;5.57;;;6.40;82.70;;;;;;5076024;28;20035;-74
2021/03/22 05:05:54;;;;;;;20.27;5.80;;;6.40;82.70;;;;;;5074475;28;20476;-75
2021/03/22 05:08:22;;;;;;;17.88;4.88;;;6.40;82.70;;;;;;5075870;28;20056;-74
2021/03/22 05:10:50;;;;;;;14.85;4.88;;;6.40;82.70;;;;;;5074495;28;20029;-74
2021/03/22 05:13:17;;;;;;;19.05;5.57;;;6.40;82.70;;;;;;5075654;28;20461;-75
2021/03/22 05:15:43;;;;;;;14.80;5.00;;;6.40;82.80;;;;;;5074506;28;20029;-74
2021/03/22 05:18:11;;;;;;;15.35;4.95;;;6.40;82.90;;;;;;5075736;28;20027;-74
2021/03/22 05:20:40;;;;;;;11.85;4.30;;;6.40;82.90;;;;;;5074310;28;20115;-74
2021/03/22 05:23:09;;;;;;;12.95;4.10;;;6.40;83.00;;;;;;5076088;28;20063;-74
2021/03/22 05:25:35;;;;;;;13.68;4.60;;;6.40;83.00;;;;;;5074294;28;20029;-74
2021/03/22 05:28:05;;;;;;;11.88;4.07;;;6.40;83.00;;;;;;5074086;28;20147;-74
2021/03/22 05:30:31;;;;;;;14.95;4.60;;;6.40;83.10;;;;;;5075442;28;20496;-74
2021/03/22 05:32:58;;;;;;;10.65;3.85;;;6.40;83.00;;;;;;5074285;28;20433;-74
2021/03/22 05:35:26;;;;;;;11.60;3.95;;;6.40;83.10;;;;;;5074626;28;20093;-75
2021/03/22 05:37:53;;;;;;;12.88;3.67;;;6.40;83.00;;;;;;5075274;28;20184;-74
2021/03/22 05:40:32;;;;;;;13.57;3.95;;;6.40;83.00;;;;;;5073944;28;20029;-74
2021/03/22 05:43:16;;;;;;;10.95;4.22;;;6.40;83.10;;;;;;5074506;28;20170;-74
2021/03/22 05:46:09;;;;;;;11.43;3.78;;;6.50;83.10;;;;;;5073844;28;20033;-74
2021/03/22 05:48:58;;;;;;;10.75;3.63;;;6.40;83.10;;;;;;5075325;28;20119;-74
2021/03/22 05:52:03;;;;;;;10.98;3.38;;;6.40;83.20;;;;;;5075118;28;20435;-74
2021/03/22 05:54:28;;;;;;;;;;;6.40;83.20;;;;;;5074010;28;20036;-74
2021/03/22 05:57:17;;;;;;;12.88;3.25;;;6.40;83.50;;;;;;5073613;28;19908;-75
2021/03/22 06:00:07;;;;;;;9.30;2.60;;;6.30;83.30;;;;;;5073671;28;20082;-74
2021/03/22 06:03:14;;;;;;;9.50;3.10;;;6.30;83.40;;;;;;5073679;28;20025;-74
2021/03/22 06:06:00;;;;;;;7.80;2.60;;;6.30;83.50;;;;;;5068769;28;20090;-74
2021/03/22 06:08:35;;;;;;;12.00;3.13;;;6.30;83.60;;;;;;5073706;28;20032;-74
2021/03/22 06:11:24;;;;;;;10.65;3.28;;;6.30;83.70;;;;;;5073550;28;20086;-74
2021/03/22 06:14:15;;;;;;;9.00;2.92;;;6.30;83.60;;;;;;5074037;28;20042;-74
2021/03/22 06:16:47;;;;;;;9.82;2.60;;;6.30;83.70;;;;;;5073595;28;20037;-74
2021/03/22 06:19:16;;;;;;;8.55;2.78;;;6.40;83.80;;;;;;5074859;28;20029;-74
2021/03/22 06:21:47;;;;;;;12.13;5.95;;;6.40;83.70;;;;;;5074575;28;20089;-74
2021/03/22 06:24:22;;;;;;;14.45;6.28;;;6.40;83.80;;;;;;5074577;28;20068;-74
2021/03/22 06:26:50;;;;;;;10.55;3.75;;;6.50;83.80;;;;;;5073229;28;20054;-75
2021/03/22 06:29:31;;;;;;;9.68;3.17;;;6.50;83.70;;;;;;5072997;28;20060;-74
2021/03/22 06:32:07;;;;;;;10.25;3.00;;;6.60;83.70;;;;;;5073118;28;20040;-75
2021/03/22 06:34:39;;;;;;;7.97;2.70;;;6.60;83.60;;;;;;5072763;28;20090;-74
2021/03/22 06:37:05;;;;;;;6.72;2.35;;;6.70;83.60;;;;;;5074107;28;20108;-74
2021/03/22 06:39:31;;;;;;;11.80;2.90;;;6.70;83.50;;;;;;5074129;28;20452;-74
2021/03/22 06:41:56;;;;;;;10.35;2.75;;;6.80;83.50;;;;;;5072776;28;20039;-74
2021/03/22 06:44:34;;;;;;;9.95;2.78;;;6.80;83.40;;;;;;5072798;28;20024;-74
2021/03/22 06:47:05;;;;;;;9.13;2.53;;;6.80;83.40;;;;;;5074343;28;20430;-74
2021/03/22 06:49:37;;;;;;;6.25;2.45;;;6.80;83.50;;;;;;5074108;28;20043;-75
2021/03/22 06:52:05;;;;;;;7.75;2.30;;;6.80;83.70;;;;;;5072582;28;20036;-74
2021/03/22 06:54:40;;;;;;;9.15;2.55;;;6.70;83.60;;;;;;5070972;28;20113;-74
2021/03/22 06:57:11;;;;;;;7.18;2.10;;;6.70;83.70;;;;;;5073098;28;20480;-74
2021/03/22 06:59:37;;;;;;;4.85;2.13;;;6.80;83.80;;;;;;5073808;28;20069;-74
2021/03/22 07:02:22;;;;;;;8.13;2.58;;;6.80;83.80;;;;;;5073796;28;20048;-74
2021/03/22 07:04:49;;;;;;;6.30;2.30;;;6.90;83.70;;;;;;5073809;28;20032;-74
2021/03/22 07:07:27;;;;;;;6.93;2.22;;;7.00;83.60;;;;;;5074220;28;20028;-74
2021/03/22 07:09:58;;;;;;;19.67;2.53;;;7.00;83.50;;;;;;5072434;28;20032;-74
2021/03/22 07:12:36;;;;;;;6.50;2.03;;;7.00;83.40;;;;;;5073531;28;20032;-73
2021/03/22 07:15:23;;;;;;;6.47;2.08;;;7.10;83.50;;;;;;5072315;28;20109;-74
2021/03/22 07:18:04;;;;;;;8.45;1.90;;;7.10;83.40;;;;;;5073883;28;20020;-74
2021/03/22 07:20:30;;;;;;;9.57;2.00;;;7.20;83.20;;;;;;5073625;28;20470;-74
2021/03/22 07:23:19;;;;;;;8.23;2.10;;;7.30;83.20;;;;;;5072289;28;20052;-75
2021/03/22 07:25:53;;;;;;;6.80;1.80;;;7.30;83.10;;;;;;5073217;28;20033;-74
2021/03/22 07:28:22;;;;;;;6.53;1.90;;;7.40;83.00;;;;;;5071839;28;20404;-74
2021/03/22 07:30:52;;;;;;;4.45;1.75;;;7.40;82.90;;;;;;5073392;28;20028;-74
2021/03/22 07:33:42;;;;;;;5.10;1.80;;;7.50;82.80;;;;;;5071972;28;20032;-74
2021/03/22 07:36:11;;;;;;;3.90;1.70;;;7.50;82.80;;;;;;5071678;28;20037;-74
2021/03/22 07:39:05;;;;;;;4.53;1.80;;;7.50;82.70;;;;;;5071602;28;20028;-74
2021/03/22 07:41:55;;;;;;;5.85;1.65;;;7.50;82.60;;;;;;5071545;28;20058;-74
2021/03/22 07:44:39;;;;;;;5.90;1.75;;;7.50;82.70;;;;;;5073077;28;20025;-74
2021/03/22 07:47:17;;;;;;;;;;;7.50;82.50;;;;;;5072118;28;20024;-74
2021/03/22 07:49:55;;;;;;;5.60;1.45;;;7.50;82.60;;;;;;5071444;28;19914;-74
2021/03/22 07:52:46;;;;;;;4.13;1.40;;;7.40;82.50;;;;;;5071401;28;20369;-75
2021/03/22 07:55:39;;;;;;;4.88;1.60;;;7.50;82.60;;;;;;5072318;28;20069;-75
2021/03/22 07:58:32;;;;;;;2.75;1.30;;;7.50;82.50;;;;;;5072489;28;20024;-74
2021/03/22 08:01:07;;;;;;;2.42;1.08;;;7.50;82.50;;;;;;5071206;28;20373;-75
2021/03/22 08:03:58;;;;;;;2.58;0.85;;;7.50;82.30;;;;;;5071496;28;20036;-75
2021/03/22 08:06:23;;;;;;;3.13;1.10;;;7.70;82.20;;;;;;5071072;28;20487;-74
2021/03/22 08:09:13;;;;;;;3.03;0.90;;;7.80;82.10;;;;;;5071770;28;20043;-74
2021/03/22 08:11:53;;;;;;;4.20;1.15;;;7.90;81.90;;;;;;5071617;28;20033;-74
2021/03/22 08:14:29;;;;;;;4.45;1.50;;;7.90;81.70;;;;;;5071363;28;20028;-76
2021/03/22 08:17:32;;;;;;;2.05;0.98;;;7.90;81.30;;;;;;5071324;28;20502;-75
2021/03/22 08:20:19;;;;;;;1.55;1.00;;;7.80;81.40;;;;;;5071302;28;20028;-75
2021/03/22 08:23:15;;;;;;;4.63;1.40;;;7.60;81.50;;;;;;5072478;28;20031;-75
2021/03/22 08:25:50;;;;;;;3.78;1.13;;;7.60;81.80;;;;;;5071140;28;20024;-74
2021/03/22 08:28:33;;;;;;;3.85;1.23;;;7.60;81.60;;;;;;5070917;28;20525;-74
2021/03/22 08:31:17;;;;;;;2.90;1.20;;;7.50;81.90;;;;;;5072960;28;20493;-75
2021/03/22 08:34:06;;;;;;;3.38;1.23;;;7.60;82.00;;;;;;5071411;28;20024;-75
2021/03/22 08:37:07;;;;;;;2.63;1.10;;;7.60;81.90;;;;;;5072405;28;20037;-75
2021/03/22 08:39:53;;;;;;;3.65;1.05;;;7.60;81.70;;;;;;5072437;28;20468;-75
2021/03/22 08:42:28;;;;;;;3.25;0.93;;;7.70;81.70;;;;;;5070648;28;20037;-75
2021/03/22 08:45:06;;;;;;;2.88;1.10;;;7.60;81.70;;;;;;5071430;28;20421;-76
2021/03/22 08:48:05;;;;;;;4.07;1.23;;;7.70;81.80;;;;;;5071737;28;20109;-75
2021/03/22 08:50:34;;;;;;;4.65;1.30;;;7.80;81.60;;;;;;5071152;28;20044;-75
2021/03/22 08:53:19;;;;;;;3.42;1.23;;;7.80;80.60;;;;;;5071627;28;20546;-75
2021/03/22 08:59:17;;;;;;;3.22;1.02;;;7.80;80.90;;;;;;5072819;28;20384;-75
2021/03/22 09:01:43;;;;;;;4.25;1.10;;;7.90;80.80;;;;;;5072150;28;20036;-73
2021/03/22 09:04:19;;;;;;;3.00;1.58;;;8.00;80.70;;;;;;5070872;28;20368;-73
2021/03/22 09:07:00;;;;;;;4.45;1.40;;;8.00;80.10;;;;;;5071076;28;20369;-73
2021/03/22 09:09:30;;;;;;;3.72;2.35;;;8.10;80.10;;;;;;5070979;28;20024;-74
2021/03/22 09:11:57;;;;;;;4.82;2.17;;;8.10;80.00;;;;;;5071573;28;20108;-75
2021/03/22 09:14:28;;;;;;;6.15;1.92;;;8.10;79.80;;;;;;5070784;28;20055;-75
2021/03/22 09:16:55;;;;;;;4.03;1.60;;;8.10;79.80;;;;;;5071682;28;20434;-75
2021/03/22 09:19:21;;;;;;;5.82;1.70;;;8.10;79.90;;;;;;5074459;28;20403;-75
2021/03/22 09:21:48;;;;;;;3.40;1.33;;;8.00;79.90;;;;;;5074507;28;20024;-75
2021/03/22 09:27:24;;;;;;;2.00;1.10;;;7.90;80.20;;;;;;5075613;28;20032;-74
2021/03/22 09:30:05;;;;;;;3.85;1.30;;;8.00;80.60;;;;;;5075232;28;20051;-75
2021/03/22 09:32:31;;;;;;;4.50;1.20;;;8.00;80.60;;;;;;5075866;28;20402;-75
2021/03/22 09:35:15;;;;;;;2.08;1.33;;;8.20;80.60;;;;;;5074312;28;20037;-75
2021/03/22 09:37:59;;;;;;;3.40;1.23;;;8.30;81.00;;;;;;5076144;28;20025;-75
2021/03/22 09:40:26;;;;;;;5.20;1.30;;;8.50;80.20;;;;;;5074332;28;20074;-74
2021/03/22 09:43:07;;;;;;;2.25;1.15;;;8.60;79.90;;;;;;5074457;28;20396;-75
2021/03/22 09:45:53;;;;;;;2.90;1.02;;;8.80;79.70;;;;;;5075332;28;20033;-75
2021/03/22 09:48:26;;;;;;;2.33;1.02;;;8.80;79.20;;;;;;5073904;28;20039;-75
2021/03/22 09:51:12;;;;;;;2.90;1.30;;;8.80;78.90;;;;;;5073921;28;20494;-75
2021/03/22 09:53:54;;;;;;;2.33;1.30;;;8.80;78.80;;;;;;5069794;28;20055;-75
2021/03/22 09:56:32;;;;;;;3.60;1.00;;;8.80;78.90;;;;;;5073471;28;20051;-75
2021/03/22 09:59:35;;;;;;;2.45;1.00;;;8.90;78.40;;;;;;5075484;28;20554;-75
2021/03/22 10:02:27;;;;;;;5.55;2.60;;;8.90;78.60;;;;;;5072870;28;20037;-74
2021/03/22 10:05:26;;;;;;;3.55;1.35;;;9.00;78.30;;;;;;5073144;28;20173;-74
2021/03/22 10:08:01;;;;;;;3.25;0.98;;;9.10;77.80;;;;;;5072354;28;20044;-73
2021/03/22 10:10:39;;;;;;;3.05;1.27;;;9.10;77.90;;;;;;5072712;28;20029;-73
2021/03/22 10:13:28;;;;;;;2.97;1.02;;;9.10;77.50;;;;;;5055740;28;20128;-74
2021/03/22 10:16:07;;;;;;;2.70;1.10;;;9.10;77.40;;;;;;5055710;28;20511;-73
2021/03/22 10:18:37;;;;;;;1.98;0.90;;;9.00;77.40;;;;;;5055718;28;20064;-74
2021/03/22 10:21:08;;;;;;;1.08;0.80;;;9.00;77.30;;;;;;5055480;28;20025;-74
2021/03/22 10:24:00;;;;;;;1.42;1.00;;;9.00;77.30;;;;;;5055436;28;20163;-73
2021/03/22 10:26:40;;;;;;;2.80;1.00;;;9.00;77.30;;;;;;5055277;28;20025;-74
2021/03/22 10:29:21;;;;;;;3.13;0.90;;;9.10;77.10;;;;;;5072177;28;20127;-74
2021/03/22 10:32:06;;;;;;;2.33;0.85;;;9.20;76.70;;;;;;5055487;28;20048;-75
2021/03/22 10:34:40;;;;;;;1.55;0.90;;;9.20;76.50;;;;;;5055388;28;20540;-73
2021/03/22 10:37:28;;;;;;;2.28;0.75;;;9.30;76.60;;;;;;5059285;28;20047;-74
2021/03/22 10:40:04;;;;;;;3.53;0.93;;;9.50;76.50;;;;;;5072585;28;20024;-74
2021/03/22 10:42:30;;;;;;;3.25;1.00;;;9.60;76.30;;;;;;5072681;28;20024;-76
2021/03/22 10:44:56;;;;;;;2.10;0.82;;;9.70;75.80;;;;;;5073717;28;20039;-74
2021/03/22 10:47:28;;;;;;;2.70;0.70;;;9.80;75.00;;;;;;5073582;28;20454;-74
2021/03/22 10:50:05;;;;;;;1.55;0.50;;;9.80;74.50;;;;;;5074048;28;20070;-74
2021/03/22 10:52:31;;;;;;;2.40;0.75;;;9.70;73.10;;;;;;5072547;28;20029;-75
2021/03/22 10:54:58;;;;;;;2.22;0.63;;;9.60;73.50;;;;;;5072263;28;20052;-75
2021/03/22 10:57:44;;;;;;;1.23;0.40;;;9.60;73.10;;;;;;5073634;28;20051;-75
2021/03/22 11:00:28;;;;;;;3.00;0.60;;;9.70;73.30;;;;;;5073893;28;20495;-74
2021/03/22 11:02:56;;;;;;;1.48;0.57;;;9.90;72.70;;;;;;5072529;28;20085;-74
2021/03/22 11:05:30;;;;;;;1.27;0.60;;;10.00;72.20;;;;;;5072399;28;20028;-74
2021/03/22 11:08:01;;;;;;;1.40;0.60;;;10.00;72.00;;;;;;5073647;28;20093;-75
2021/03/22 11:10:26;;;;;;;0.80;0.50;;;10.00;71.80;;;;;;5072162;28;20124;-74
2021/03/22 11:12:53;;;;;;;3.90;1.48;;;10.00;71.00;;;;;;5073700;28;20507;-75
2021/03/22 11:15:26;;;;;;;1.90;0.80;;;10.00;71.00;;;;;;5072220;28;20035;-74
2021/03/22 11:17:53;;;;;;;1.33;0.70;;;9.90;70.60;;;;;;5073440;28;20081;-75
2021/03/22 11:20:20;;;;;;;2.10;0.73;;;9.90;70.90;;;;;;5072050;28;20040;-74
2021/03/22 11:22:47;;;;;;;2.75;0.68;;;9.90;71.00;;;;;;5072494;28;20380;-73
2021/03/22 11:25:34;;;;;;;3.03;0.77;;;9.90;70.30;;;;;;5071726;28;20044;-74
2021/03/22 11:28:29;;;;;;;2.95;0.70;;;9.90;69.90;;;;;;5073126;28;20085;-74
2021/03/22 11:30:54;;;;;;;1.77;0.65;;;9.70;69.80;;;;;;5071656;28;20040;-75
2021/03/22 11:33:38;;;;;;;1.40;0.82;;;9.60;69.80;;;;;;5074438;28;20578;-76
2021/03/22 11:36:08;;;;;;;2.28;0.60;;;9.50;69.90;;;;;;5072741;28;20028;-74
2021/03/22 11:38:53;;;;;;;2.28;0.88;;;9.40;70.40;;;;;;5072918;28;20100;-74
2021/03/22 11:41:35;;;;;;;1.25;0.50;;;9.40;70.40;;;;;;5071488;28;20085;-75
2021/03/22 11:44:03;;;;;;;2.20;1.00;;;9.30;69.80;;;;;;5072841;28;20025;-75
2021/03/22 11:46:28;;;;;;;3.30;0.65;;;9.20;70.30;;;;;;5072879;28;20468;-75
2021/03/22 11:48:54;;;;;;;1.77;0.70;;;9.20;70.60;;;;;;5072838;28;20032;-74
2021/03/22 11:51:20;;;;;;;1.23;0.50;;;9.20;70.40;;;;;;5072727;28;20039;-76
2021/03/22 11:54:04;;;;;;;1.73;0.73;;;9.20;70.60;;;;;;5072952;28;20024;-74
2021/03/22 11:56:33;;;;;;;1.27;0.68;;;9.20;70.60;;;;;;5073190;28;20020;-75
2021/03/22 11:59:22;;;;;;;2.92;0.63;;;9.20;70.80;;;;;;5071402;28;20023;-75
2021/03/22 12:02:10;;;;;;;1.33;0.63;;;9.30;70.80;;;;;;5072651;28;20024;-75
2021/03/22 12:04:36;;;;;;;1.92;0.55;;;9.40;71.00;;;;;;5071324;28;20031;-75
2021/03/22 12:07:53;;;;;;;1.75;0.57;;;9.50;70.80;;;;;;5071270;28;20384;-76
2021/03/22 12:10:28;;;;;;;1.55;0.57;;;9.60;70.70;;;;;;5059991;28;20086;-76
2021/03/22 12:12:58;;;;;;;1.35;0.70;;;9.60;70.70;;;;;;5071565;28;20419;-75
2021/03/22 12:15:25;;;;;;;0.80;0.60;;;9.80;70.90;;;;;;5071358;28;20025;-75
2021/03/22 12:18:03;;;;;;;0.63;0.50;;;9.90;70.40;;;;;;5073204;28;20107;-76
2021/03/22 12:20:31;;;;;;;4.20;1.00;;;9.90;70.40;;;;;;5071369;28;20468;-75
2021/03/22 12:22:57;;;;;;;1.90;0.73;;;10.00;69.70;;;;;;5071493;28;20012;-74
2021/03/22 12:25:29;;;;;;;1.17;0.60;;;10.00;69.70;;;;;;5071528;28;20025;-74
2021/03/22 12:27:55;;;;;;;1.83;0.80;;;10.10;69.40;;;;;;5071596;28;20507;-74
2021/03/22 12:30:23;;;;;;;1.42;0.50;;;10.20;68.20;;;;;;5071383;28;20043;-74
2021/03/22 12:32:50;;;;;;;1.52;0.40;;;10.20;67.70;;;;;;5071440;28;20054;-76
2021/03/22 12:35:37;;;;;;;2.00;0.50;;;10.20;67.70;;;;;;5071246;28;20483;-75
2021/03/22 12:38:04;;;;;;;1.50;0.40;;;10.20;66.10;;;;;;5072491;28;20028;-76
2021/03/22 12:40:30;;;;;;;0.73;0.50;;;10.20;66.20;;;;;;5071017;28;20374;-75
2021/03/22 12:42:56;;;;;;;0.82;0.50;;;10.20;66.40;;;;;;5072448;28;20050;-75
2021/03/22 12:45:28;;;;;;;0.60;0.30;;;10.20;66.30;;;;;;5071493;28;20050;-75
2021/03/22 12:47:54;;;;;;;1.30;0.50;;;10.30;66.10;;;;;;5071143;28;20052;-75
2021/03/22 12:50:23;;;;;;;1.65;0.30;;;10.30;64.60;;;;;;5071286;28;20047;-76
2021/03/22 12:52:50;;;;;;;1.13;0.28;;;10.40;65.20;;;;;;5076396;28;20021;-76
2021/03/22 12:55:16;;;;;;;1.70;0.55;;;10.50;65.00;;;;;;5076351;28;20469;-75
2021/03/22 12:57:42;;;;;;;1.75;0.38;;;10.50;64.50;;;;;;5074945;28;20040;-75
2021/03/22 13:00:09;;;;;;;1.33;0.40;;;10.60;64.30;;;;;;5076068;28;20448;-76
2021/03/22 13:02:34;;;;;;;1.23;0.50;;;10.60;64.00;;;;;;5074757;28;20023;-75
2021/03/22 13:05:00;;;;;;;1.30;0.40;;;10.70;64.10;;;;;;5074734;28;20020;-75
2021/03/22 13:07:26;;;;;;;1.50;0.40;;;10.80;64.10;;;;;;5074783;28;20024;-75
2021/03/22 13:09:52;;;;;;;0.57;0.47;;;10.80;63.30;;;;;;5075283;28;20021;-76
2021/03/22 13:12:21;;;;;;;2.90;0.47;;;10.80;63.40;;;;;;5074354;28;20055;-75
2021/03/22 13:14:48;;;;;;;0.60;0.40;;;10.70;62.50;;;;;;5074429;28;20070;-75
2021/03/22 13:17:15;;;;;;;0.73;0.50;;;10.70;62.50;;;;;;5074679;28;20035;-75
2021/03/22 13:19:41;;;;;;;1.05;0.65;;;10.70;62.70;;;;;;5074245;28;20024;-75
2021/03/22 13:22:08;;;;;;;2.25;0.60;;;10.70;62.30;;;;;;5075712;28;20052;-75
2021/03/22 13:24:34;;;;;;;2.08;0.75;;;10.60;61.30;;;;;;5074363;28;20032;-75
2021/03/22 13:27:00;;;;;;;0.93;0.60;;;10.60;62.00;;;;;;5074343;28;20043;-75
2021/03/22 13:29:25;;;;;;;2.42;0.70;;;10.60;61.40;;;;;;5074126;28;20052;-75
2021/03/22 13:31:51;;;;;;;1.92;0.80;;;10.60;61.30;;;;;;5074203;28;20025;-75